sensor_id;sensor_type;location;lat;lon;timestamp;pressure;altitude;pressure_sealevel;temperature;humidity
72677;BME280;60755;51.374;10.662;2022-09-12T00:01:12;97483.78;;;9.93;100.00
72677;BME280;60755;51.374;10.662;2022-09-12T00:03:39;97483.28;;;10.15;100.00
72677;BME280;60755;51.374;10.662;2022-09-12T00:06:08;97487.69;;;10.02;100.00
72677;BME280;60755;51.374;10.662;2022-09-12T00:08:36;97482.31;;;9.97;100.00
72677;BME280;60755;51.374;10.662;2022-09-12T00:11:05;97487.88;;;9.89;100.00
72677;BME280;60755;51.374;10.662;2022-09-12T00:13:32;97490.25;;;10.21;100.00
72677;BME280;60755;51.374;10.662;2022-09-12T00:15:58;97492.31;;;10.19;100.00
72677;BME280;60755;51.374;10.662;2022-09-12T00:18:25;97485.50;;;9.99;100.00
72677;BME280;60755;51.374;10.662;2022-09-12T00:20:51;97481.94;;;9.94;100.00
72677;BME280;60755;51.374;10.662;2022-09-12T00:23:18;97487.63;;;9.79;100.00
72677;BME280;60755;51.374;10.662;2022-09-12T00:25:47;97490.56;;;9.71;100.00
72677;BME280;60755;51.374;10.662;2022-09-12T00:28:15;97486.19;;;9.65;100.00
72677;BME280;60755;51.374;10.662;2022-09-12T00:30:44;97488.25;;;9.63;100.00
72677;BME280;60755;51.374;10.662;2022-09-12T00:33:11;97482.31;;;9.67;100.00
72677;BME280;60755;51.374;10.662;2022-09-12T00:35:42;97484.00;;;9.62;100.00
72677;BME280;60755;51.374;10.662;2022-09-12T00:38:09;97484.47;;;9.59;100.00
72677;BME280;60755;51.374;10.662;2022-09-12T00:40:35;97486.13;;;9.53;100.00
72677;BME280;60755;51.374;10.662;2022-09-12T00:43:04;97486.94;;;9.53;100.00
72677;BME280;60755;51.374;10.662;2022-09-12T00:45:31;97478.94;;;9.48;100.00
72677;BME280;60755;51.374;10.662;2022-09-12T00:48:00;97481.00;;;9.46;100.00
72677;BME280;60755;51.374;10.662;2022-09-12T00:50:28;97473.56;;;9.43;100.00
72677;BME280;60755;51.374;10.662;2022-09-12T00:52:59;97475.38;;;9.43;100.00
72677;BME280;60755;51.374;10.662;2022-09-12T00:55:31;97471.38;;;9.40;100.00
72677;BME280;60755;51.374;10.662;2022-09-12T00:58:05;97472.59;;;9.38;100.00
72677;BME280;60755;51.374;10.662;2022-09-12T01:00:34;97472.25;;;9.34;100.00
72677;BME280;60755;51.374;10.662;2022-09-12T01:03:04;97461.78;;;9.34;100.00
72677;BME280;60755;51.374;10.662;2022-09-12T01:05:33;97463.03;;;9.32;100.00
72677;BME280;60755;51.374;10.662;2022-09-12T01:08:00;97459.22;;;9.28;100.00
72677;BME280;60755;51.374;10.662;2022-09-12T01:10:28;97469.94;;;9.26;100.00
72677;BME280;60755;51.374;10.662;2022-09-12T01:12:56;97463.53;;;9.22;100.00
72677;BME280;60755;51.374;10.662;2022-09-12T01:15:24;97453.84;;;9.22;100.00
72677;BME280;60755;51.374;10.662;2022-09-12T01:18:02;97462.38;;;9.18;100.00
72677;BME280;60755;51.374;10.662;2022-09-12T01:20:41;97453.56;;;9.12;100.00
72677;BME280;60755;51.374;10.662;2022-09-12T01:26:25;97444.16;;;9.05;100.00
72677;BME280;60755;51.374;10.662;2022-09-12T01:29:18;97453.47;;;9.19;100.00
72677;BME280;60755;51.374;10.662;2022-09-12T01:31:59;97445.69;;;9.12;100.00
72677;BME280;60755;51.374;10.662;2022-09-12T01:34:33;97447.50;;;9.12;100.00
72677;BME280;60755;51.374;10.662;2022-09-12T01:37:08;97443.28;;;9.11;100.00
72677;BME280;60755;51.374;10.662;2022-09-12T01:39:44;97445.91;;;9.11;100.00
72677;BME280;60755;51.374;10.662;2022-09-12T01:42:20;97444.75;;;9.07;100.00
72677;BME280;60755;51.374;10.662;2022-09-12T01:44:55;97442.34;;;9.05;100.00
72677;BME280;60755;51.374;10.662;2022-09-12T01:47:31;97440.41;;;9.01;100.00
72677;BME280;60755;51.374;10.662;2022-09-12T01:50:05;97443.25;;;8.99;100.00
72677;BME280;60755;51.374;10.662;2022-09-12T01:52:36;97447.53;;;8.93;100.00
72677;BME280;60755;51.374;10.662;2022-09-12T01:55:09;97448.16;;;8.89;100.00
72677;BME280;60755;51.374;10.662;2022-09-12T01:57:41;97438.13;;;8.86;100.00
72677;BME280;60755;51.374;10.662;2022-09-12T02:00:11;97438.34;;;8.84;100.00
72677;BME280;60755;51.374;10.662;2022-09-12T02:02:42;97440.97;;;8.84;100.00
72677;BME280;60755;51.374;10.662;2022-09-12T02:05:18;97434.13;;;8.83;100.00
72677;BME280;60755;51.374;10.662;2022-09-12T02:07:50;97432.53;;;8.82;100.00
72677;BME280;60755;51.374;10.662;2022-09-12T02:10:20;97433.34;;;8.83;100.00
72677;BME280;60755;51.374;10.662;2022-09-12T02:12:51;97426.06;;;8.85;100.00
72677;BME280;60755;51.374;10.662;2022-09-12T02:15:22;97429.53;;;8.79;100.00
72677;BME280;60755;51.374;10.662;2022-09-12T02:17:51;97431.72;;;8.82;100.00
72677;BME280;60755;51.374;10.662;2022-09-12T02:20:22;97427.16;;;8.77;100.00
72677;BME280;60755;51.374;10.662;2022-09-12T02:22:52;97424.06;;;8.80;100.00
72677;BME280;60755;51.374;10.662;2022-09-12T02:25:23;97422.53;;;8.73;100.00
72677;BME280;60755;51.374;10.662;2022-09-12T02:27:53;97422.94;;;8.76;100.00
72677;BME280;60755;51.374;10.662;2022-09-12T02:30:23;97421.91;;;8.77;100.00
72677;BME280;60755;51.374;10.662;2022-09-12T02:32:57;97415.56;;;8.85;100.00
72677;BME280;60755;51.374;10.662;2022-09-12T02:35:32;97415.56;;;8.85;100.00
72677;BME280;60755;51.374;10.662;2022-09-12T02:38:03;97411.28;;;8.72;100.00
72677;BME280;60755;51.374;10.662;2022-09-12T02:40:32;97420.88;;;8.78;100.00
72677;BME280;60755;51.374;10.662;2022-09-12T02:43:00;97421.09;;;8.77;100.00
72677;BME280;60755;51.374;10.662;2022-09-12T02:45:27;97426.25;;;8.65;100.00
72677;BME280;60755;51.374;10.662;2022-09-12T02:48:00;97407.34;;;8.63;100.00
72677;BME280;60755;51.374;10.662;2022-09-12T02:50:28;97410.41;;;8.60;100.00
72677;BME280;60755;51.374;10.662;2022-09-12T02:52:55;97417.97;;;8.68;100.00
72677;BME280;60755;51.374;10.662;2022-09-12T02:55:24;97415.41;;;8.61;100.00
72677;BME280;60755;51.374;10.662;2022-09-12T02:57:50;97413.75;;;8.67;100.00
72677;BME280;60755;51.374;10.662;2022-09-12T03:00:17;97410.34;;;8.66;100.00
72677;BME280;60755;51.374;10.662;2022-09-12T03:02:55;97410.53;;;8.65;100.00
72677;BME280;60755;51.374;10.662;2022-09-12T03:05:31;97413.09;;;8.53;100.00
72677;BME280;60755;51.374;10.662;2022-09-12T03:08:11;97414.91;;;8.53;100.00
72677;BME280;60755;51.374;10.662;2022-09-12T03:10:46;97413.66;;;8.55;100.00
72677;BME280;60755;51.374;10.662;2022-09-12T03:13:20;97422.09;;;8.57;100.00
72677;BME280;60755;51.374;10.662;2022-09-12T03:15:55;97417.47;;;8.59;100.00
72677;BME280;60755;51.374;10.662;2022-09-12T03:18:39;97418.09;;;8.55;100.00
72677;BME280;60755;51.374;10.662;2022-09-12T03:21:12;97417.53;;;8.53;100.00
72677;BME280;60755;51.374;10.662;2022-09-12T03:23:51;97421.63;;;8.42;100.00
72677;BME280;60755;51.374;10.662;2022-09-12T03:26:26;97414.66;;;8.36;100.00
72677;BME280;60755;51.374;10.662;2022-09-12T03:28:55;97411.81;;;8.37;100.00
72677;BME280;60755;51.374;10.662;2022-09-12T03:31:23;97409.81;;;8.33;100.00
72677;BME280;60755;51.374;10.662;2022-09-12T03:33:50;97414.69;;;8.29;100.00
72677;BME280;60755;51.374;10.662;2022-09-12T03:36:20;97414.69;;;8.29;100.00
72677;BME280;60755;51.374;10.662;2022-09-12T03:38:47;97417.88;;;8.38;100.00
72677;BME280;60755;51.374;10.662;2022-09-12T03:41:14;97407.63;;;8.36;100.00
72677;BME280;60755;51.374;10.662;2022-09-12T03:43:41;97412.66;;;8.31;100.00
72677;BME280;60755;51.374;10.662;2022-09-12T03:46:07;97413.09;;;8.28;100.00
72677;BME280;60755;51.374;10.662;2022-09-12T03:48:34;97417.38;;;8.23;100.00
72677;BME280;60755;51.374;10.662;2022-09-12T03:51:01;97415.41;;;8.18;100.00
72677;BME280;60755;51.374;10.662;2022-09-12T03:53:29;97415.47;;;8.11;100.00
72677;BME280;60755;51.374;10.662;2022-09-12T03:55:55;97410.16;;;8.18;100.00
72677;BME280;60755;51.374;10.662;2022-09-12T03:58:22;97412.19;;;8.16;100.00
72677;BME280;60755;51.374;10.662;2022-09-12T04:00:48;97418.66;;;8.13;100.00
72677;BME280;60755;51.374;10.662;2022-09-12T04:03:15;97413.63;;;8.12;100.00
72677;BME280;60755;51.374;10.662;2022-09-12T04:05:43;97415.19;;;8.20;100.00
72677;BME280;60755;51.374;10.662;2022-09-12T04:08:10;97413.28;;;8.02;100.00
72677;BME280;60755;51.374;10.662;2022-09-12T04:10:38;97408.25;;;8.07;100.00
72677;BME280;60755;51.374;10.662;2022-09-12T04:13:04;97401.97;;;8.08;100.00
72677;BME280;60755;51.374;10.662;2022-09-12T04:15:30;97402.41;;;8.05;100.00
72677;BME280;60755;51.374;10.662;2022-09-12T04:17:57;97404.47;;;8.03;100.00
72677;BME280;60755;51.374;10.662;2022-09-12T04:20:23;97406.47;;;8.01;100.00
72677;BME280;60755;51.374;10.662;2022-09-12T04:22:50;97404.59;;;8.08;100.00
72677;BME280;60755;51.374;10.662;2022-09-12T04:25:16;97409.88;;;8.01;100.00
72677;BME280;60755;51.374;10.662;2022-09-12T04:27:44;97415.66;;;8.10;100.00
72677;BME280;60755;51.374;10.662;2022-09-12T04:30:11;97412.09;;;8.04;100.00
72677;BME280;60755;51.374;10.662;2022-09-12T04:32:37;97414.06;;;8.09;100.00
72677;BME280;60755;51.374;10.662;2022-09-12T04:35:05;97413.84;;;8.10;100.00
72677;BME280;60755;51.374;10.662;2022-09-12T04:37:32;97410.00;;;8.13;100.00
72677;BME280;60755;51.374;10.662;2022-09-12T04:39:59;97419.44;;;8.14;100.00
72677;BME280;60755;51.374;10.662;2022-09-12T04:42:25;97417.31;;;8.04;100.00
72677;BME280;60755;51.374;10.662;2022-09-12T04:44:53;97425.97;;;8.05;100.00
72677;BME280;60755;51.374;10.662;2022-09-12T04:47:19;97426.78;;;8.05;100.00
72677;BME280;60755;51.374;10.662;2022-09-12T04:49:47;97431.22;;;8.05;100.00
72677;BME280;60755;51.374;10.662;2022-09-12T04:52:15;97416.66;;;8.09;100.00
72677;BME280;60755;51.374;10.662;2022-09-12T04:54:41;97422.13;;;8.07;100.00
72677;BME280;60755;51.374;10.662;2022-09-12T04:57:08;97423.66;;;8.15;100.00
72677;BME280;60755;51.374;10.662;2022-09-12T04:59:35;97423.00;;;8.26;100.00
72677;BME280;60755;51.374;10.662;2022-09-12T05:02:03;97426.19;;;8.28;99.04
72677;BME280;60755;51.374;10.662;2022-09-12T05:04:30;97426.75;;;8.37;99.87
72677;BME280;60755;51.374;10.662;2022-09-12T05:06:56;97421.63;;;8.85;98.71
72677;BME280;60755;51.374;10.662;2022-09-12T05:09:23;97418.41;;;10.15;95.58
72677;BME280;60755;51.374;10.662;2022-09-12T05:11:49;97429.25;;;11.01;89.23
72677;BME280;60755;51.374;10.662;2022-09-12T05:14:15;97427.28;;;11.93;83.76
72677;BME280;60755;51.374;10.662;2022-09-12T05:16:42;97427.91;;;12.89;78.86
72677;BME280;60755;51.374;10.662;2022-09-12T05:19:10;97431.84;;;13.53;75.78
72677;BME280;60755;51.374;10.662;2022-09-12T05:21:37;97433.66;;;14.43;71.50
72677;BME280;60755;51.374;10.662;2022-09-12T05:24:03;97424.81;;;15.12;69.97
72677;BME280;60755;51.374;10.662;2022-09-12T05:26:31;97432.47;;;15.03;69.88
72677;BME280;60755;51.374;10.662;2022-09-12T05:28:57;97431.41;;;16.28;67.06
72677;BME280;60755;51.374;10.662;2022-09-12T05:31:25;97428.22;;;16.57;66.89
72677;BME280;60755;51.374;10.662;2022-09-12T05:33:53;97435.06;;;16.93;64.63
72677;BME280;60755;51.374;10.662;2022-09-12T05:36:23;97430.88;;;17.42;63.98
72677;BME280;60755;51.374;10.662;2022-09-12T05:38:50;97437.19;;;18.00;60.77
72677;BME280;60755;51.374;10.662;2022-09-12T05:41:18;97430.03;;;18.59;60.24
72677;BME280;60755;51.374;10.662;2022-09-12T05:43:46;97440.53;;;19.03;58.85
72677;BME280;60755;51.374;10.662;2022-09-12T05:46:18;97425.28;;;19.51;56.79
72677;BME280;60755;51.374;10.662;2022-09-12T05:48:47;97433.47;;;20.11;56.13
72677;BME280;60755;51.374;10.662;2022-09-12T05:51:16;97434.25;;;20.63;53.94
72677;BME280;60755;51.374;10.662;2022-09-12T05:53:45;97427.13;;;20.73;55.57
72677;BME280;60755;51.374;10.662;2022-09-12T05:56:14;97425.94;;;21.06;52.38
72677;BME280;60755;51.374;10.662;2022-09-12T05:58:42;97426.84;;;21.15;53.99
72677;BME280;60755;51.374;10.662;2022-09-12T06:01:11;97420.03;;;20.95;53.70
72677;BME280;60755;51.374;10.662;2022-09-12T06:03:40;97427.94;;;20.87;55.38
72677;BME280;60755;51.374;10.662;2022-09-12T06:06:07;97429.09;;;21.86;52.19
72677;BME280;60755;51.374;10.662;2022-09-12T06:08:34;97428.41;;;22.70;48.58
72677;BME280;60755;51.374;10.662;2022-09-12T06:11:04;97430.72;;;23.42;47.81
72677;BME280;60755;51.374;10.662;2022-09-12T06:13:31;97435.44;;;23.28;47.75
72677;BME280;60755;51.374;10.662;2022-09-12T06:16:03;97433.63;;;23.71;49.81
72677;BME280;60755;51.374;10.662;2022-09-12T06:18:30;97436.94;;;24.12;47.21
72677;BME280;60755;51.374;10.662;2022-09-12T06:20:58;97431.25;;;24.13;46.65
72677;BME280;60755;51.374;10.662;2022-09-12T06:23:26;97434.38;;;24.50;45.72
72677;BME280;60755;51.374;10.662;2022-09-12T06:25:53;97426.22;;;23.94;46.43
72677;BME280;60755;51.374;10.662;2022-09-12T06:28:21;97429.50;;;23.74;47.55
72677;BME280;60755;51.374;10.662;2022-09-12T06:30:49;97435.56;;;23.23;48.52
72677;BME280;60755;51.374;10.662;2022-09-12T06:33:16;97428.97;;;22.58;49.66
72677;BME280;60755;51.374;10.662;2022-09-12T06:35:43;97437.72;;;22.41;51.77
72677;BME280;60755;51.374;10.662;2022-09-12T06:38:09;97430.53;;;23.30;49.59
72677;BME280;60755;51.374;10.662;2022-09-12T06:40:40;97430.81;;;23.11;50.85
72677;BME280;60755;51.374;10.662;2022-09-12T06:43:09;97436.06;;;22.54;51.89
72677;BME280;60755;51.374;10.662;2022-09-12T06:45:36;97431.88;;;21.58;56.45
72677;BME280;60755;51.374;10.662;2022-09-12T06:48:03;97432.06;;;21.98;55.52
72677;BME280;60755;51.374;10.662;2022-09-12T06:50:30;97434.09;;;22.15;54.32
72677;BME280;60755;51.374;10.662;2022-09-12T06:52:56;97429.69;;;22.72;51.66
72677;BME280;60755;51.374;10.662;2022-09-12T06:55:22;97428.94;;;22.80;53.28
72677;BME280;60755;51.374;10.662;2022-09-12T06:57:49;97434.53;;;22.93;51.87
72677;BME280;60755;51.374;10.662;2022-09-12T07:00:16;97439.66;;;22.27;54.29
72677;BME280;60755;51.374;10.662;2022-09-12T07:02:44;97428.06;;;22.63;54.30
72677;BME280;60755;51.374;10.662;2022-09-12T07:05:10;97430.69;;;23.25;51.25
72677;BME280;60755;51.374;10.662;2022-09-12T07:07:38;97435.38;;;23.76;52.76
72677;BME280;60755;51.374;10.662;2022-09-12T07:10:05;97430.78;;;24.03;51.09
72677;BME280;60755;51.374;10.662;2022-09-12T07:12:31;97425.41;;;24.37;50.53
72677;BME280;60755;51.374;10.662;2022-09-12T07:14:57;97432.66;;;25.60;47.38
72677;BME280;60755;51.374;10.662;2022-09-12T07:17:25;97438.09;;;26.80;45.04
72677;BME280;60755;51.374;10.662;2022-09-12T07:19:52;97427.13;;;27.86;42.06
72677;BME280;60755;51.374;10.662;2022-09-12T07:22:19;97436.72;;;27.84;42.38
72677;BME280;60755;51.374;10.662;2022-09-12T07:24:45;97434.84;;;28.00;42.08
72677;BME280;60755;51.374;10.662;2022-09-12T07:27:12;97430.69;;;28.47;41.93
72677;BME280;60755;51.374;10.662;2022-09-12T07:29:39;97433.25;;;28.39;40.35
72677;BME280;60755;51.374;10.662;2022-09-12T07:32:05;97430.59;;;26.53;45.42
72677;BME280;60755;51.374;10.662;2022-09-12T07:34:33;97424.19;;;23.91;51.37
72677;BME280;60755;51.374;10.662;2022-09-12T07:37:01;97434.78;;;22.29;58.41
72677;BME280;60755;51.374;10.662;2022-09-12T07:39:28;97432.84;;;20.66;62.45
72677;BME280;60755;51.374;10.662;2022-09-12T07:41:54;97425.81;;;20.24;62.57
72677;BME280;60755;51.374;10.662;2022-09-12T07:44:21;97434.22;;;19.79;64.19
72677;BME280;60755;51.374;10.662;2022-09-12T07:46:48;97428.31;;;19.21;65.26
72677;BME280;60755;51.374;10.662;2022-09-12T07:49:16;97427.38;;;18.59;69.71
72677;BME280;60755;51.374;10.662;2022-09-12T07:51:42;97437.97;;;18.64;68.54
72677;BME280;60755;51.374;10.662;2022-09-12T07:54:10;97429.91;;;18.45;68.99
72677;BME280;60755;51.374;10.662;2022-09-12T07:56:37;97429.50;;;18.28;69.80
72677;BME280;60755;51.374;10.662;2022-09-12T07:59:05;97425.75;;;18.34;69.13
72677;BME280;60755;51.374;10.662;2022-09-12T08:01:31;97429.16;;;18.39;69.22
72677;BME280;60755;51.374;10.662;2022-09-12T08:03:58;97435.84;;;18.37;68.96
72677;BME280;60755;51.374;10.662;2022-09-12T08:06:27;97437.06;;;18.44;69.99
72677;BME280;60755;51.374;10.662;2022-09-12T08:08:55;97435.69;;;18.23;68.17
72677;BME280;60755;51.374;10.662;2022-09-12T08:11:25;97440.91;;;17.99;70.34
72677;BME280;60755;51.374;10.662;2022-09-12T08:13:53;97431.34;;;17.98;69.48
72677;BME280;60755;51.374;10.662;2022-09-12T08:16:22;97440.25;;;18.17;69.38
72677;BME280;60755;51.374;10.662;2022-09-12T08:18:50;97443.09;;;18.26;69.46
72677;BME280;60755;51.374;10.662;2022-09-12T08:21:18;97436.44;;;18.29;69.03
72677;BME280;60755;51.374;10.662;2022-09-12T08:23:45;97440.06;;;18.04;70.17
72677;BME280;60755;51.374;10.662;2022-09-12T08:26:12;97437.28;;;18.24;69.33
72677;BME280;60755;51.374;10.662;2022-09-12T08:28:43;97437.78;;;18.26;69.16
72677;BME280;60755;51.374;10.662;2022-09-12T08:31:12;97439.94;;;18.24;70.16
72677;BME280;60755;51.374;10.662;2022-09-12T08:33:39;97446.81;;;18.30;67.90
72677;BME280;60755;51.374;10.662;2022-09-12T08:36:09;97437.97;;;18.35;69.23
72677;BME280;60755;51.374;10.662;2022-09-12T08:38:37;97438.88;;;18.54;68.15
72677;BME280;60755;51.374;10.662;2022-09-12T08:41:09;97441.00;;;18.52;67.61
72677;BME280;60755;51.374;10.662;2022-09-12T08:43:54;97444.25;;;18.78;69.30
72677;BME280;60755;51.374;10.662;2022-09-12T08:46:27;97438.25;;;18.91;68.14
72677;BME280;60755;51.374;10.662;2022-09-12T08:48:59;97442.44;;;18.97;67.46
72677;BME280;60755;51.374;10.662;2022-09-12T08:51:27;97433.19;;;18.90;67.65
72677;BME280;60755;51.374;10.662;2022-09-12T08:53:56;97428.66;;;18.90;67.03
72677;BME280;60755;51.374;10.662;2022-09-12T08:56:25;97423.06;;;18.92;66.13
72677;BME280;60755;51.374;10.662;2022-09-12T08:58:55;97431.00;;;18.97;66.07
72677;BME280;60755;51.374;10.662;2022-09-12T09:01:27;97427.88;;;19.14;65.63
72677;BME280;60755;51.374;10.662;2022-09-12T09:04:12;97426.28;;;18.89;65.45
72677;BME280;60755;51.374;10.662;2022-09-12T09:06:56;97432.38;;;18.94;67.11
72677;BME280;60755;51.374;10.662;2022-09-12T09:09:35;97433.53;;;19.07;64.97
72677;BME280;60755;51.374;10.662;2022-09-12T09:12:06;97423.91;;;19.11;65.52
72677;BME280;60755;51.374;10.662;2022-09-12T09:14:46;97420.16;;;19.12;64.24
72677;BME280;60755;51.374;10.662;2022-09-12T09:17:20;97426.75;;;18.96;61.85
72677;BME280;60755;51.374;10.662;2022-09-12T09:19:54;97418.75;;;18.72;62.16
72677;BME280;60755;51.374;10.662;2022-09-12T09:22:30;97411.94;;;18.85;63.17
72677;BME280;60755;51.374;10.662;2022-09-12T09:25:03;97417.50;;;18.88;62.81
72677;BME280;60755;51.374;10.662;2022-09-12T09:27:32;97413.47;;;18.91;61.37
72677;BME280;60755;51.374;10.662;2022-09-12T09:30:07;97418.50;;;18.92;61.82
72677;BME280;60755;51.374;10.662;2022-09-12T09:32:38;97414.22;;;18.96;61.11
72677;BME280;60755;51.374;10.662;2022-09-12T09:35:13;97413.97;;;19.17;59.30
72677;BME280;60755;51.374;10.662;2022-09-12T09:37:41;97414.41;;;19.24;57.86
72677;BME280;60755;51.374;10.662;2022-09-12T09:40:16;97408.16;;;19.58;57.06
72677;BME280;60755;51.374;10.662;2022-09-12T09:42:55;97412.44;;;19.35;57.63
72677;BME280;60755;51.374;10.662;2022-09-12T09:45:24;97409.16;;;19.62;57.03
72677;BME280;60755;51.374;10.662;2022-09-12T09:47:57;97406.03;;;19.54;57.80
72677;BME280;60755;51.374;10.662;2022-09-12T09:50:26;97410.19;;;19.66;57.61
72677;BME280;60755;51.374;10.662;2022-09-12T09:52:54;97405.03;;;19.88;56.93
72677;BME280;60755;51.374;10.662;2022-09-12T09:55:26;97399.84;;;20.29;58.70
72677;BME280;60755;51.374;10.662;2022-09-12T09:57:53;97400.03;;;20.33;58.84
72677;BME280;60755;51.374;10.662;2022-09-12T10:00:29;97394.25;;;20.58;56.82
72677;BME280;60755;51.374;10.662;2022-09-12T10:03:01;97401.00;;;21.11;55.28
72677;BME280;60755;51.374;10.662;2022-09-12T10:05:30;97395.75;;;20.92;56.31
72677;BME280;60755;51.374;10.662;2022-09-12T10:07:58;97397.25;;;21.26;56.08
72677;BME280;60755;51.374;10.662;2022-09-12T10:10:24;97387.06;;;21.28;56.15
72677;BME280;60755;51.374;10.662;2022-09-12T10:13:06;97392.41;;;21.28;55.03
72677;BME280;60755;51.374;10.662;2022-09-12T10:15:34;97379.94;;;21.59;54.86
72677;BME280;60755;51.374;10.662;2022-09-12T10:18:03;97385.09;;;21.92;53.34
72677;BME280;60755;51.374;10.662;2022-09-12T10:20:32;97385.22;;;22.09;52.18
72677;BME280;60755;51.374;10.662;2022-09-12T10:23:19;97380.53;;;21.56;50.63
72677;BME280;60755;51.374;10.662;2022-09-12T10:25:52;97376.22;;;21.46;52.52
72677;BME280;60755;51.374;10.662;2022-09-12T10:28:21;97386.09;;;22.04;51.91
72677;BME280;60755;51.374;10.662;2022-09-12T10:30:53;97380.81;;;22.13;52.34
72677;BME280;60755;51.374;10.662;2022-09-12T10:33:22;97382.38;;;21.33;52.99
72677;BME280;60755;51.374;10.662;2022-09-12T10:35:51;97374.22;;;21.52;50.12
72677;BME280;60755;51.374;10.662;2022-09-12T10:38:22;97374.81;;;21.49;50.79
72677;BME280;60755;51.374;10.662;2022-09-12T10:40:55;97370.03;;;21.60;52.33
72677;BME280;60755;51.374;10.662;2022-09-12T10:43:26;97365.69;;;22.09;53.84
72677;BME280;60755;51.374;10.662;2022-09-12T10:45:57;97364.84;;;22.61;50.76
72677;BME280;60755;51.374;10.662;2022-09-12T10:48:27;97364.31;;;22.82;49.57
72677;BME280;60755;51.374;10.662;2022-09-12T10:50:54;97361.50;;;22.47;49.73
72677;BME280;60755;51.374;10.662;2022-09-12T10:53:23;97356.31;;;22.20;50.09
72677;BME280;60755;51.374;10.662;2022-09-12T10:56:12;97360.44;;;22.03;51.12
72677;BME280;60755;51.374;10.662;2022-09-12T10:58:49;97357.91;;;21.76;51.44
72677;BME280;60755;51.374;10.662;2022-09-12T11:01:34;97356.47;;;21.34;52.11
72677;BME280;60755;51.374;10.662;2022-09-12T11:07:05;97354.47;;;21.62;52.75
72677;BME280;60755;51.374;10.662;2022-09-12T11:09:39;97349.19;;;21.93;53.35
72677;BME280;60755;51.374;10.662;2022-09-12T11:12:12;97345.06;;;22.09;51.52
72677;BME280;60755;51.374;10.662;2022-09-12T11:14:52;97351.63;;;22.25;52.10
72677;BME280;60755;51.374;10.662;2022-09-12T11:17:33;97344.75;;;22.42;50.41
72677;BME280;60755;51.374;10.662;2022-09-12T11:20:34;97347.44;;;22.42;51.75
72677;BME280;60755;51.374;10.662;2022-09-12T11:23:43;97341.34;;;22.50;53.13
72677;BME280;60755;51.374;10.662;2022-09-12T11:26:24;97336.41;;;22.83;50.91
72677;BME280;60755;51.374;10.662;2022-09-12T11:29:02;97343.88;;;22.95;51.45
72677;BME280;60755;51.374;10.662;2022-09-12T11:31:51;97336.97;;;23.20;51.36
72677;BME280;60755;51.374;10.662;2022-09-12T11:34:27;97345.94;;;22.58;50.35
72677;BME280;60755;51.374;10.662;2022-09-12T11:37:11;97336.72;;;22.81;50.75
72677;BME280;60755;51.374;10.662;2022-09-12T11:39:41;97337.72;;;22.54;50.14
72677;BME280;60755;51.374;10.662;2022-09-12T11:42:15;97336.00;;;22.58;50.94
72677;BME280;60755;51.374;10.662;2022-09-12T11:44:45;97329.69;;;23.03;49.82
72677;BME280;60755;51.374;10.662;2022-09-12T11:47:13;97332.53;;;23.15;47.64
72677;BME280;60755;51.374;10.662;2022-09-12T11:49:46;97334.91;;;23.08;50.86
72677;BME280;60755;51.374;10.662;2022-09-12T11:52:15;97341.66;;;22.17;54.14
72677;BME280;60755;51.374;10.662;2022-09-12T11:54:47;97336.38;;;22.74;51.47
72677;BME280;60755;51.374;10.662;2022-09-12T11:57:21;97335.53;;;23.13;50.74
72677;BME280;60755;51.374;10.662;2022-09-12T11:59:51;97334.91;;;23.25;49.72
72677;BME280;60755;51.374;10.662;2022-09-12T12:02:25;97334.09;;;23.07;49.48
72677;BME280;60755;51.374;10.662;2022-09-12T12:05:04;97328.53;;;22.38;49.95
72677;BME280;60755;51.374;10.662;2022-09-12T12:07:40;97323.38;;;22.99;48.24
72677;BME280;60755;51.374;10.662;2022-09-12T12:10:21;97317.25;;;23.24;49.30
72677;BME280;60755;51.374;10.662;2022-09-12T12:12:50;97326.19;;;22.94;49.70
72677;BME280;60755;51.374;10.662;2022-09-12T12:15:17;97321.47;;;22.91;50.23
72677;BME280;60755;51.374;10.662;2022-09-12T12:17:43;97322.28;;;23.26;49.10
72677;BME280;60755;51.374;10.662;2022-09-12T12:20:15;97316.00;;;23.30;49.21
72677;BME280;60755;51.374;10.662;2022-09-12T12:22:50;97319.00;;;23.20;49.14
72677;BME280;60755;51.374;10.662;2022-09-12T12:25:24;97315.53;;;23.28;49.34
72677;BME280;60755;51.374;10.662;2022-09-12T12:27:54;97316.34;;;22.72;51.15
72677;BME280;60755;51.374;10.662;2022-09-12T12:33:59;97311.38;;;22.87;50.80
72677;BME280;60755;51.374;10.662;2022-09-12T12:36:36;97310.50;;;22.70;51.33
72677;BME280;60755;51.374;10.662;2022-09-12T12:48:52;97293.44;;;23.66;48.93
72677;BME280;60755;51.374;10.662;2022-09-12T12:51:29;97298.16;;;23.86;46.63
72677;BME280;60755;51.374;10.662;2022-09-12T12:53:59;97290.13;;;23.52;46.33
72677;BME280;60755;51.374;10.662;2022-09-12T12:56:33;97289.00;;;23.53;48.00
72677;BME280;60755;51.374;10.662;2022-09-12T12:59:02;97281.91;;;23.31;46.90
72677;BME280;60755;51.374;10.662;2022-09-12T13:01:30;97284.44;;;23.36;47.65
72677;BME280;60755;51.374;10.662;2022-09-12T13:04:11;97277.50;;;23.17;47.79
72677;BME280;60755;51.374;10.662;2022-09-12T13:06:40;97273.72;;;23.19;47.03
72677;BME280;60755;51.374;10.662;2022-09-12T13:09:19;97274.66;;;23.14;48.00
72677;BME280;60755;51.374;10.662;2022-09-12T13:11:55;97277.63;;;22.86;47.84
72677;BME280;60755;51.374;10.662;2022-09-12T13:14:35;97266.97;;;22.55;48.92
72677;BME280;60755;51.374;10.662;2022-09-12T13:17:04;97258.56;;;22.88;47.31
72677;BME280;60755;51.374;10.662;2022-09-12T13:19:35;97266.28;;;22.89;50.16
72677;BME280;60755;51.374;10.662;2022-09-12T13:22:04;97265.19;;;22.99;49.82
72677;BME280;60755;51.374;10.662;2022-09-12T13:24:33;97259.03;;;23.07;49.12
72677;BME280;60755;51.374;10.662;2022-09-12T13:27:00;97247.38;;;22.95;50.19